Time;durP1;ratioP1;P1;durP2;ratioP2;P2;SDS_P1;SDS_P2;PMS_P1;PMS_P2;Temp;Humidity;BMP_temperature;BMP_pressure;BME280_temperature;BME280_humidity;BME280_pressure;Samples;Min_cycle;Max_cycle;Signal;HPM_P1;HPM_P2
2022/03/28 00:03:53;;;;;;;24.20;9.45;;;;;;;;;;10429402;28;20442;-75
2022/03/28 00:08:53;;;;;;;16.53;8.87;;;;;;;;;;10429446;28;20554;-74
2022/03/28 00:13:54;;;;;;;22.38;9.55;;;;;;;;;;10429273;28;20255;-77
2022/03/28 00:18:54;;;;;;;24.85;11.23;;;;;;;;;;10429071;28;20070;-72
2022/03/28 00:23:55;;;;;;;19.13;8.95;;;;;;;;;;10428661;28;20024;-72
2022/03/28 00:28:55;;;;;;;21.70;9.57;;;;;;;;;;10429053;28;20055;-75
2022/03/28 00:33:55;;;;;;;16.98;8.57;;;;;;;;;;10428732;28;20325;-72
2022/03/28 00:38:56;;;;;;;15.77;9.17;;;;;;;;;;10412497;28;20028;-71
2022/03/28 00:43:57;;;;;;;22.10;9.43;;;;;;;;;;10428984;28;20382;-71
2022/03/28 00:48:58;;;;;;;31.92;10.05;;;;;;;;;;10428579;28;20259;-70
2022/03/28 00:53:59;;;;;;;21.23;9.40;;;;;;;;;;10428516;28;20017;-75
2022/03/28 00:58:59;;;;;;;22.38;9.30;;;;;;;;;;10446627;28;20330;-74
2022/03/28 01:04:00;;;;;;;17.07;9.77;;;;;;;;;;10428528;28;20140;-70
2022/03/28 01:09:01;;;;;;;24.50;10.70;;;;;;;;;;10428332;28;20017;-75
2022/03/28 01:14:01;;;;;;;22.80;9.38;;;;;;;;;;10446223;28;20025;-70
2022/03/28 01:19:03;;;;;;;18.00;9.10;;;;;;;;;;10446223;28;20475;-71
2022/03/28 01:24:03;;;;;;;14.95;9.00;;;;;;;;;;10428076;28;20017;-73
2022/03/28 01:29:05;;;;;;;23.05;10.23;;;;;;;;;;10445606;28;20024;-78
2022/03/28 01:34:06;;;;;;;19.52;8.60;;;;;;;;;;10433472;28;20044;-72
2022/03/28 01:39:06;;;;;;;16.35;9.85;;;;;;;;;;10435288;28;20107;-71
2022/03/28 01:44:07;;;;;;;16.67;9.57;;;;;;;;;;10435028;28;20021;-76
2022/03/28 01:49:07;;;;;;;22.55;8.65;;;;;;;;;;10436714;28;20021;-73
2022/03/28 01:54:07;;;;;;;18.13;8.60;;;;;;;;;;10436291;28;20046;-71
2022/03/28 01:59:08;;;;;;;21.43;9.23;;;;;;;;;;10436416;28;20398;-71
2022/03/28 02:04:08;;;;;;;15.73;9.85;;;;;;;;;;10434825;28;20049;-74
2022/03/28 02:09:09;;;;;;;18.13;10.60;;;;;;;;;;10434298;28;20021;-73
2022/03/28 02:14:09;;;;;;;18.25;9.65;;;;;;;;;;10433767;28;20403;-74
2022/03/28 02:19:09;;;;;;;20.90;10.80;;;;;;;;;;10433841;28;20045;-72
2022/03/28 02:24:10;;;;;;;20.02;10.95;;;;;;;;;;10433830;28;20025;-73
2022/03/28 02:29:10;;;;;;;24.02;10.95;;;;;;;;;;10432974;28;20480;-70
2022/03/28 02:34:10;;;;;;;18.33;9.65;;;;;;;;;;10433327;28;20028;-71
2022/03/28 02:39:10;;;;;;;21.55;10.75;;;;;;;;;;10432806;28;20029;-78
2022/03/28 02:44:11;;;;;;;21.58;10.30;;;;;;;;;;10431414;28;20025;-70
2022/03/28 02:49:11;;;;;;;28.92;10.20;;;;;;;;;;10432569;28;20040;-76
2022/03/28 02:54:11;;;;;;;21.25;11.30;;;;;;;;;;10416262;28;20027;-71
2022/03/28 02:59:12;;;;;;;25.48;10.40;;;;;;;;;;10416143;28;20059;-74
2022/03/28 03:04:12;;;;;;;20.58;10.60;;;;;;;;;;10431892;28;20049;-70
2022/03/28 03:09:12;;;;;;;24.33;10.77;;;;;;;;;;10431864;28;20104;-72
2022/03/28 03:14:13;;;;;;;21.00;9.60;;;;;;;;;;10431669;28;20017;-70
2022/03/28 03:19:13;;;;;;;18.77;10.77;;;;;;;;;;10431054;28;20023;-72
2022/03/28 03:24:14;;;;;;;22.10;10.60;;;;;;;;;;10431270;28;20020;-73
2022/03/28 03:29:14;;;;;;;18.95;9.75;;;;;;;;;;10448620;28;21956;-71
2022/03/28 03:34:14;;;;;;;19.70;10.68;;;;;;;;;;10430008;28;20020;-70
2022/03/28 03:39:14;;;;;;;27.25;9.90;;;;;;;;;;10430715;28;20025;-70
2022/03/28 03:44:15;;;;;;;22.30;10.33;;;;;;;;;;10448156;28;20025;-72
2022/03/28 03:49:18;;;;;;;25.57;11.03;;;;;;;;;;10430154;28;20052;-71
2022/03/28 03:54:18;;;;;;;29.02;11.77;;;;;;;;;;10429617;28;20021;-73
2022/03/28 03:59:19;;;;;;;23.70;11.47;;;;;;;;;;10429662;28;20467;-72
2022/03/28 04:04:19;;;;;;;20.88;13.43;;;;;;;;;;10389610;28;20164;-71
2022/03/28 04:09:19;;;;;;;30.58;12.82;;;;;;;;;;10406218;28;20033;-72
2022/03/28 04:14:20;;;;;;;29.77;10.87;;;;;;;;;;10388449;28;20029;-71
2022/03/28 04:19:20;;;;;;;22.05;12.10;;;;;;;;;;10389869;28;20080;-74
2022/03/28 04:24:20;;;;;;;18.98;10.32;;;;;;;;;;10387589;28;20136;-73
2022/03/28 04:29:20;;;;;;;29.67;11.20;;;;;;;;;;10405178;28;20021;-74
2022/03/28 04:34:21;;;;;;;20.05;12.10;;;;;;;;;;10421402;28;20024;-72
2022/03/28 04:39:21;;;;;;;26.13;12.00;;;;;;;;;;10428219;28;20036;-71
2022/03/28 04:44:21;;;;;;;18.10;10.85;;;;;;;;;;10396373;28;20030;-72
2022/03/28 04:49:22;;;;;;;19.17;11.83;;;;;;;;;;10415880;28;20032;-74
2022/03/28 04:54:22;;;;;;;27.08;15.15;;;;;;;;;;10423705;28;20017;-73
2022/03/28 04:59:22;;;;;;;25.90;13.35;;;;;;;;;;10424114;28;20415;-75
2022/03/28 05:04:22;;;;;;;28.02;13.20;;;;;;;;;;10442086;28;20515;-75
2022/03/28 05:09:23;;;;;;;26.17;12.57;;;;;;;;;;10434702;28;20085;-72
2022/03/28 05:14:23;;;;;;;26.40;9.88;;;;;;;;;;10410408;28;20037;-74
2022/03/28 05:19:24;;;;;;;20.77;9.82;;;;;;;;;;10394224;28;20033;-74
2022/03/28 05:24:24;;;;;;;18.95;12.23;;;;;;;;;;10410594;28;20029;-74
2022/03/28 05:29:24;;;;;;;20.67;10.27;;;;;;;;;;10410575;28;20029;-74
2022/03/28 05:34:25;;;;;;;22.92;12.05;;;;;;;;;;10412388;28;20025;-74
2022/03/28 05:39:28;;;;;;;29.30;12.10;;;;;;;;;;10393828;28;20026;-75
2022/03/28 05:44:29;;;;;;;35.40;14.60;;;;;;;;;;10392826;28;20299;-72
2022/03/28 05:49:29;;;;;;;40.00;21.33;;;;;;;;;;10392781;28;20079;-75
2022/03/28 05:54:29;;;;;;;47.77;28.00;;;;;;;;;;10392973;28;20044;-73
2022/03/28 05:59:30;;;;;;;55.77;29.50;;;;;;;;;;10392835;28;20060;-75
2022/03/28 06:04:30;;;;;;;58.03;26.27;;;;;;;;;;10432953;28;20049;-75
2022/03/28 06:09:30;;;;;;;39.70;19.88;;;;;;;;;;10433727;28;20029;-73
2022/03/28 06:14:30;;;;;;;35.10;17.58;;;;;;;;;;10433088;28;20422;-73
2022/03/28 06:19:31;;;;;;;26.80;13.07;;;;;;;;;;10433391;28;20051;-73
2022/03/28 06:24:31;;;;;;;33.20;14.63;;;;;;;;;;10433035;28;20025;-74
2022/03/28 06:29:31;;;;;;;25.25;12.27;;;;;;;;;;10433003;28;20025;-73
2022/03/28 06:34:32;;;;;;;34.25;13.68;;;;;;;;;;10450732;28;20450;-75
2022/03/28 06:39:34;;;;;;;22.47;11.47;;;;;;;;;;10451008;28;20491;-72
2022/03/28 06:44:34;;;;;;;21.80;11.50;;;;;;;;;;10450553;28;20035;-74
2022/03/28 06:49:35;;;;;;;28.33;11.90;;;;;;;;;;10450086;28;20410;-72
2022/03/28 06:54:35;;;;;;;18.77;11.20;;;;;;;;;;10449930;28;20563;-73
2022/03/28 06:59:36;;;;;;;28.05;12.55;;;;;;;;;;10431361;28;20396;-73
2022/03/28 07:04:36;;;;;;;23.35;10.85;;;;;;;;;;10432921;28;20060;-75
2022/03/28 07:09:37;;;;;;;22.70;9.63;;;;;;;;;;10431614;28;20029;-73
2022/03/28 07:14:37;;;;;;;24.05;9.63;;;;;;;;;;10431091;28;20432;-76
2022/03/28 07:19:37;;;;;;;20.15;9.15;;;;;;;;;;10430734;28;20021;-73
2022/03/28 07:24:38;;;;;;;14.95;7.88;;;;;;;;;;10448557;28;20067;-72
2022/03/28 07:29:38;;;;;;;13.73;8.25;;;;;;;;;;10429943;28;20162;-79
2022/03/28 07:34:39;;;;;;;24.98;9.23;;;;;;;;;;10430776;28;20028;-72
2022/03/28 07:39:40;;;;;;;21.20;9.13;;;;;;;;;;10430259;28;20032;-72
2022/03/28 07:44:44;;;;;;;15.07;9.65;;;;;;;;;;10447590;28;20032;-73
2022/03/28 07:49:45;;;;;;;17.58;9.23;;;;;;;;;;10429740;28;20024;-72
2022/03/28 07:54:45;;;;;;;11.80;7.18;;;;;;;;;;10447732;28;20025;-72
2022/03/28 07:59:46;;;;;;;14.10;7.97;;;;;;;;;;10429341;28;20471;-74
2022/03/28 08:04:47;;;;;;;15.45;8.63;;;;;;;;;;10428809;28;20029;-76
2022/03/28 08:09:47;;;;;;;19.00;8.82;;;;;;;;;;10429757;28;20033;-73
2022/03/28 08:14:49;;;;;;;16.35;8.32;;;;;;;;;;10429069;28;20032;-71
2022/03/28 08:19:50;;;;;;;26.50;9.15;;;;;;;;;;10428389;28;20048;-77
2022/03/28 08:24:50;;;;;;;18.83;9.30;;;;;;;;;;10428851;28;20024;-72
2022/03/28 08:29:51;;;;;;;17.70;9.18;;;;;;;;;;10412007;28;20032;-73
2022/03/28 08:34:51;;;;;;;14.00;9.35;;;;;;;;;;10412193;28;20021;-76
2022/03/28 08:39:54;;;;;;;21.17;10.05;;;;;;;;;;10428900;28;20036;-73
2022/03/28 08:44:55;;;;;;;16.75;9.43;;;;;;;;;;10435910;28;20031;-73
2022/03/28 08:49:55;;;;;;;14.97;8.37;;;;;;;;;;10436337;28;20510;-74
2022/03/28 08:54:55;;;;;;;13.87;7.60;;;;;;;;;;10454391;28;20020;-74
2022/03/28 08:59:56;;;;;;;13.77;7.53;;;;;;;;;;10454418;28;20140;-72
2022/03/28 09:04:56;;;;;;;18.30;9.30;;;;;;;;;;10436451;28;20039;-76
2022/03/28 09:09:57;;;;;;;20.87;9.70;;;;;;;;;;10439234;28;20025;-75
2022/03/28 09:15:01;;;;;;;18.92;9.00;;;;;;;;;;10480494;28;20032;-73
2022/03/28 09:20:04;;;;;;;17.45;8.88;;;;;;;;;;10451693;28;20029;-73
2022/03/28 09:25:06;;;;;;;13.95;8.18;;;;;;;;;;10435530;28;20075;-72
2022/03/28 09:30:08;;;;;;;17.92;9.43;;;;;;;;;;10435015;28;20017;-74
2022/03/28 09:35:10;;;;;;;17.55;9.32;;;;;;;;;;10434703;28;20144;-72
2022/03/28 09:40:31;;;;;;;19.13;9.63;;;;;;;;;;10435044;28;20029;-74
2022/03/28 09:45:34;;;;;;;16.98;8.45;;;;;;;;;;10433894;28;20164;-73
2022/03/28 09:50:46;;;;;;;19.27;9.38;;;;;;;;;;10434497;28;20458;-73
2022/03/28 09:55:48;;;;;;;23.05;8.23;;;;;;;;;;10433080;28;20116;-72
2022/03/28 10:00:49;;;;;;;16.27;7.43;;;;;;;;;;10434003;28;20052;-72
2022/03/28 10:05:49;;;;;;;11.75;7.13;;;;;;;;;;10433810;28;20477;-71
2022/03/28 10:10:50;;;;;;;14.45;7.43;;;;;;;;;;10451331;28;20036;-75
2022/03/28 10:15:51;;;;;;;16.93;7.90;;;;;;;;;;10433427;28;20021;-71
2022/03/28 10:20:53;;;;;;;14.77;7.40;;;;;;;;;;10432972;28;20317;-72
2022/03/28 10:25:54;;;;;;;11.48;7.32;;;;;;;;;;10432836;28;20040;-71
2022/03/28 10:31:15;;;;;;;15.02;7.50;;;;;;;;;;10473118;28;20021;-78
2022/03/28 10:36:23;;;;;;;16.38;8.52;;;;;;;;;;10432679;28;20013;-77
2022/03/28 10:41:25;;;;;;;14.20;6.97;;;;;;;;;;10432395;28;20033;-72
2022/03/28 10:46:33;;;;;;;15.00;6.95;;;;;;;;;;10415554;28;20063;-71
2022/03/28 10:51:33;;;;;;;17.70;8.32;;;;;;;;;;10415527;28;20033;-72
2022/03/28 10:56:35;;;;;;;19.10;8.20;;;;;;;;;;10451568;28;20558;-72
2022/03/28 11:01:37;;;;;;;11.88;7.80;;;;;;;;;;10431370;28;20105;-73
2022/03/28 11:06:45;;;;;;;18.60;8.40;;;;;;;;;;10430824;28;20372;-72
2022/03/28 11:11:58;;;;;;;16.83;7.90;;;;;;;;;;10430879;28;20071;-75
2022/03/28 11:16:58;;;;;;;12.23;7.78;;;;;;;;;;10452264;28;20445;-74
2022/03/28 11:22:00;;;;;;;17.08;7.38;;;;;;;;;;10472005;28;20024;-71
2022/03/28 11:27:02;;;;;;;26.85;7.03;;;;;;;;;;10471640;28;20198;-71
2022/03/28 11:32:09;;;;;;;12.80;6.68;;;;;;;;;;10471375;28;20448;-72
2022/03/28 11:37:14;;;;;;;22.27;7.55;;;;;;;;;;10471468;28;20107;-71
2022/03/28 11:42:15;;;;;;;12.82;7.07;;;;;;;;;;10470634;28;20464;-78
2022/03/28 11:47:17;;;;;;;13.75;6.53;;;;;;;;;;10498654;28;20042;-77
2022/03/28 11:52:21;;;;;;;18.40;7.18;;;;;;;;;;10470646;28;20028;-73
2022/03/28 12:03:01;;;;;;;16.63;7.63;;;;;;;;;;10488697;28;20052;-75
2022/03/28 12:08:06;;;;;;;22.42;7.55;;;;;;;;;;10469675;28;20029;-70
2022/03/28 12:13:07;;;;;;;20.30;7.57;;;;;;;;;;10470309;28;20032;-72
2022/03/28 12:18:08;;;;;;;15.18;6.53;;;;;;;;;;10488334;28;20537;-73
2022/03/28 12:23:09;;;;;;;16.33;6.70;;;;;;;;;;10469827;28;20028;-76
2022/03/28 12:28:11;;;;;;;14.48;7.15;;;;;;;;;;10469635;28;20437;-73
2022/03/28 12:33:16;;;;;;;20.55;6.97;;;;;;;;;;10470411;28;20094;-72
2022/03/28 12:38:20;;;;;;;15.45;7.53;;;;;;;;;;10472134;28;20027;-72
2022/03/28 12:43:23;;;;;;;14.23;7.13;;;;;;;;;;10471551;28;20032;-70
2022/03/28 12:48:36;;;;;;;19.88;7.93;;;;;;;;;;10471379;28;20024;-72
2022/03/28 12:53:37;;;;;;;14.23;6.82;;;;;;;;;;10487979;28;20112;-70
2022/03/28 12:58:39;;;;;;;42.33;10.82;;;;;;;;;;10469196;28;20024;-71
2022/03/28 13:03:39;;;;;;;18.83;8.52;;;;;;;;;;10441564;28;20045;-70
2022/03/28 13:08:41;;;;;;;19.57;8.23;;;;;;;;;;10427803;28;20029;-74
2022/03/28 13:13:41;;;;;;;21.02;8.23;;;;;;;;;;10475622;28;20104;-71
2022/03/28 13:18:42;;;;;;;15.35;7.25;;;;;;;;;;10428158;28;20021;-72
2022/03/28 13:23:42;;;;;;;17.95;7.47;;;;;;;;;;10427914;28;20032;-71
2022/03/28 13:28:43;;;;;;;19.07;8.47;;;;;;;;;;10431084;28;20498;-71
2022/03/28 13:33:44;;;;;;;15.73;7.85;;;;;;;;;;10435690;28;20299;-71
2022/03/28 13:38:46;;;;;;;24.88;8.85;;;;;;;;;;10452571;28;20035;-71
2022/03/28 13:43:47;;;;;;;17.70;6.72;;;;;;;;;;10467625;28;20070;-72
2022/03/28 13:48:47;;;;;;;18.02;8.52;;;;;;;;;;10476310;28;20517;-73
2022/03/28 13:53:49;;;;;;;16.55;8.18;;;;;;;;;;10474978;28;20479;-72
2022/03/28 13:58:49;;;;;;;13.07;7.68;;;;;;;;;;10475374;28;20054;-71
2022/03/28 14:03:49;;;;;;;16.17;8.18;;;;;;;;;;10475228;28;20052;-74
2022/03/28 14:08:50;;;;;;;22.70;8.98;;;;;;;;;;10470007;28;20031;-71
2022/03/28 14:13:51;;;;;;;19.55;8.10;;;;;;;;;;10492325;28;20036;-73
2022/03/28 14:18:54;;;;;;;13.07;7.00;;;;;;;;;;10451803;28;20021;-70
2022/03/28 14:23:55;;;;;;;20.75;7.43;;;;;;;;;;10432551;28;20025;-71
2022/03/28 14:28:55;;;;;;;20.35;7.25;;;;;;;;;;10431960;28;20509;-71
2022/03/28 14:33:55;;;;;;;16.98;7.15;;;;;;;;;;10432459;28;20626;-73
2022/03/28 14:38:56;;;;;;;13.60;6.50;;;;;;;;;;10430632;28;20471;-71
2022/03/28 14:43:56;;;;;;;19.58;6.93;;;;;;;;;;10432273;28;20453;-74
2022/03/28 14:48:57;;;;;;;16.85;8.45;;;;;;;;;;10431646;28;20025;-72
2022/03/28 14:53:58;;;;;;;21.43;7.50;;;;;;;;;;10446994;28;20021;-74
2022/03/28 14:58:58;;;;;;;20.45;7.35;;;;;;;;;;10471977;28;20482;-71
2022/03/28 15:04:00;;;;;;;17.45;7.70;;;;;;;;;;10471622;28;20053;-75
2022/03/28 15:09:00;;;;;;;15.00;7.53;;;;;;;;;;10472113;28;20019;-71
2022/03/28 15:14:00;;;;;;;17.30;8.02;;;;;;;;;;10471548;28;20035;-75
2022/03/28 15:19:02;;;;;;;13.95;7.22;;;;;;;;;;10472771;28;20445;-71
2022/03/28 15:24:02;;;;;;;19.98;8.95;;;;;;;;;;10456572;28;20053;-71
2022/03/28 15:29:04;;;;;;;17.67;7.40;;;;;;;;;;10439716;28;20461;-73
2022/03/28 15:34:12;;;;;;;13.15;7.15;;;;;;;;;;10471589;28;20099;-74
2022/03/28 15:39:12;;;;;;;;;;;;;;;;;;10455489;28;20012;-72
2022/03/28 15:44:15;;;;;;;15.95;7.93;;;;;;;;;;10470871;28;19912;-71
2022/03/28 15:49:16;;;;;;;19.40;8.43;;;;;;;;;;10488843;28;20020;-71
2022/03/28 15:54:18;;;;;;;18.40;7.50;;;;;;;;;;10444992;28;20025;-70
2022/03/28 15:59:18;;;;;;;16.48;7.95;;;;;;;;;;10447217;28;20453;-72
2022/03/28 16:04:20;;;;;;;14.13;7.33;;;;;;;;;;10394879;28;20083;-71
2022/03/28 16:09:21;;;;;;;15.05;7.57;;;;;;;;;;10388049;28;20025;-72
2022/03/28 16:14:22;;;;;;;11.40;6.25;;;;;;;;;;10387505;28;20021;-74
2022/03/28 16:19:22;;;;;;;22.70;7.18;;;;;;;;;;10386811;28;20421;-71
2022/03/28 16:24:24;;;;;;;14.98;6.80;;;;;;;;;;10429163;28;20394;-73
2022/03/28 16:29:25;;;;;;;16.00;8.32;;;;;;;;;;10428849;28;20119;-71
2022/03/28 16:34:25;;;;;;;15.68;6.95;;;;;;;;;;10394609;28;20091;-71
2022/03/28 16:39:25;;;;;;;14.02;7.20;;;;;;;;;;10388063;28;20018;-72
2022/03/28 16:44:25;;;;;;;25.25;7.28;;;;;;;;;;10387555;28;20167;-74
2022/03/28 16:49:26;;;;;;;20.37;8.33;;;;;;;;;;10405142;28;20025;-71
2022/03/28 16:54:27;;;;;;;23.60;7.77;;;;;;;;;;10405669;28;20466;-72
2022/03/28 16:59:27;;;;;;;18.63;7.22;;;;;;;;;;10387382;28;20395;-74
2022/03/28 17:04:28;;;;;;;15.80;8.30;;;;;;;;;;10401471;28;20111;-71
2022/03/28 17:09:28;;;;;;;17.55;8.77;;;;;;;;;;10435922;28;20016;-71
2022/03/28 17:14:28;;;;;;;23.57;9.47;;;;;;;;;;10412645;28;20506;-72
2022/03/28 17:19:30;;;;;;;25.70;9.00;;;;;;;;;;10401575;28;20264;-71
2022/03/28 17:24:30;;;;;;;34.97;10.70;;;;;;;;;;10426613;28;20105;-72
2022/03/28 17:29:31;;;;;;;27.02;11.38;;;;;;;;;;10394321;28;20502;-72
2022/03/28 17:34:31;;;;;;;21.33;10.25;;;;;;;;;;10412181;28;20508;-72
2022/03/28 17:39:32;;;;;;;28.80;10.63;;;;;;;;;;10377298;28;20028;-71
2022/03/28 17:44:32;;;;;;;26.42;13.68;;;;;;;;;;10411549;28;20021;-73
2022/03/28 17:49:32;;;;;;;30.25;14.50;;;;;;;;;;10393327;28;20456;-72
2022/03/28 17:54:33;;;;;;;41.58;14.02;;;;;;;;;;10411027;28;20022;-71
2022/03/28 17:59:33;;;;;;;29.45;12.32;;;;;;;;;;10393367;28;20025;-71
2022/03/28 18:04:33;;;;;;;26.03;12.60;;;;;;;;;;10442283;28;20044;-76
2022/03/28 18:09:34;;;;;;;21.98;11.75;;;;;;;;;;10474727;28;20485;-71
2022/03/28 18:14:34;;;;;;;38.35;13.35;;;;;;;;;;10462407;28;20553;-74
2022/03/28 18:19:35;;;;;;;34.83;14.03;;;;;;;;;;10455297;28;20029;-73
2022/03/28 18:24:35;;;;;;;29.88;15.43;;;;;;;;;;10470141;28;20029;-75
2022/03/28 18:29:36;;;;;;;32.17;15.23;;;;;;;;;;10469934;28;20099;-76
2022/03/28 18:34:36;;;;;;;38.50;16.07;;;;;;;;;;10472022;28;20046;-75
2022/03/28 18:39:36;;;;;;;30.83;15.75;;;;;;;;;;10499618;28;20049;-75
2022/03/28 18:44:36;;;;;;;32.80;15.07;;;;;;;;;;10470234;28;20031;-76
2022/03/28 18:49:37;;;;;;;36.28;13.27;;;;;;;;;;10469795;28;20021;-79
2022/03/28 18:54:39;;;;;;;24.65;11.85;;;;;;;;;;10471095;28;20019;-74
2022/03/28 18:59:40;;;;;;;19.45;10.98;;;;;;;;;;10471303;28;20383;-76
2022/03/28 19:04:40;;;;;;;24.77;11.65;;;;;;;;;;10470781;28;20021;-75
2022/03/28 19:09:41;;;;;;;24.95;11.45;;;;;;;;;;10453347;28;20046;-75
2022/03/28 19:14:43;;;;;;;26.20;11.70;;;;;;;;;;10485001;28;20123;-76
2022/03/28 19:19:44;;;;;;;18.35;10.27;;;;;;;;;;10471936;28;20021;-75
2022/03/28 19:24:44;;;;;;;22.67;11.27;;;;;;;;;;10518508;28;20016;-77
2022/03/28 19:29:44;;;;;;;24.03;11.07;;;;;;;;;;10519251;28;20009;-76
2022/03/28 19:34:46;;;;;;;36.30;11.52;;;;;;;;;;10476507;28;20375;-74
2022/03/28 19:39:46;;;;;;;29.15;12.45;;;;;;;;;;10433817;28;20025;-72
2022/03/28 19:44:47;;;;;;;32.95;11.88;;;;;;;;;;10468548;28;20020;-73
2022/03/28 19:49:47;;;;;;;32.92;13.85;;;;;;;;;;10470186;28;20066;-76
2022/03/28 19:54:51;;;;;;;21.87;12.37;;;;;;;;;;10470311;28;20020;-72
2022/03/28 19:59:51;;;;;;;30.25;13.38;;;;;;;;;;10443940;28;20017;-75
2022/03/28 20:04:52;;;;;;;26.20;13.50;;;;;;;;;;10464857;28;20107;-73
2022/03/28 20:09:54;;;;;;;23.90;11.30;;;;;;;;;;10470247;28;20028;-74
2022/03/28 20:14:54;;;;;;;26.45;13.30;;;;;;;;;;10502687;28;20277;-71
2022/03/28 20:19:54;;;;;;;23.33;14.00;;;;;;;;;;10456724;28;20025;-72
2022/03/28 20:24:55;;;;;;;27.42;12.68;;;;;;;;;;10427578;28;20027;-74
2022/03/28 20:29:55;;;;;;;26.88;13.75;;;;;;;;;;10485344;28;20024;-71
2022/03/28 20:34:55;;;;;;;26.48;13.25;;;;;;;;;;10443778;28;20016;-71
2022/03/28 20:39:57;;;;;;;30.58;13.80;;;;;;;;;;10427102;28;20025;-76
2022/03/28 20:44:58;;;;;;;26.17;14.75;;;;;;;;;;10427436;28;20041;-74
2022/03/28 20:49:58;;;;;;;34.88;15.02;;;;;;;;;;10427452;28;20048;-78
2022/03/28 20:54:58;;;;;;;24.15;13.27;;;;;;;;;;10427623;28;20021;-77
2022/03/28 20:59:59;;;;;;;28.67;13.60;;;;;;;;;;10427019;28;20056;-75
2022/03/28 21:05:00;;;;;;;31.17;13.53;;;;;;;;;;10427732;28;20029;-74
2022/03/28 21:10:00;;;;;;;29.05;14.38;;;;;;;;;;10463492;28;20290;-75
2022/03/28 21:15:00;;;;;;;26.57;13.13;;;;;;;;;;10520081;28;20138;-73
2022/03/28 21:20:03;;;;;;;31.73;15.43;;;;;;;;;;10509216;28;20115;-76
2022/03/28 21:25:04;;;;;;;41.47;14.50;;;;;;;;;;10509146;28;20532;-75
2022/03/28 21:30:06;;;;;;;24.05;14.05;;;;;;;;;;10527472;28;20147;-72
2022/03/28 21:35:08;;;;;;;36.75;14.43;;;;;;;;;;10509923;28;20020;-71
2022/03/28 21:40:09;;;;;;;30.15;14.55;;;;;;;;;;10501188;28;20051;-77
2022/03/28 21:45:11;;;;;;;40.22;15.95;;;;;;;;;;10444452;28;20036;-76
2022/03/28 21:50:13;;;;;;;30.65;15.13;;;;;;;;;;10448836;28;20025;-76
2022/03/28 21:55:15;;;;;;;36.38;14.63;;;;;;;;;;10473679;28;20025;-73
2022/03/28 22:00:20;;;;;;;30.17;14.15;;;;;;;;;;10493289;28;20060;-74
2022/03/28 22:05:20;;;;;;;31.40;13.63;;;;;;;;;;10493624;28;20063;-75
2022/03/28 22:10:21;;;;;;;26.98;14.13;;;;;;;;;;10458258;28;20669;-77
2022/03/28 22:15:22;;;;;;;25.25;13.70;;;;;;;;;;10492499;28;20636;-80
2022/03/28 22:20:22;;;;;;;24.97;12.17;;;;;;;;;;10474572;28;20089;-73
2022/03/28 22:25:23;;;;;;;29.83;13.93;;;;;;;;;;10456771;28;20135;-72
2022/03/28 22:30:23;;;;;;;26.25;12.75;;;;;;;;;;10491133;28;20036;-70
2022/03/28 22:35:23;;;;;;;27.67;13.45;;;;;;;;;;10455532;28;20418;-76
2022/03/28 22:40:24;;;;;;;28.35;13.05;;;;;;;;;;10473896;28;20031;-75
2022/03/28 22:45:24;;;;;;;26.83;13.33;;;;;;;;;;10472941;28;20035;-76
2022/03/28 22:50:24;;;;;;;29.57;11.90;;;;;;;;;;10472408;28;20031;-72
2022/03/28 22:55:25;;;;;;;26.10;11.40;;;;;;;;;;10473127;28;20017;-73
2022/03/28 23:00:25;;;;;;;28.97;13.53;;;;;;;;;;10471568;28;20072;-74
2022/03/28 23:05:26;;;;;;;25.98;13.25;;;;;;;;;;10474083;28;20506;-74
2022/03/28 23:10:26;;;;;;;30.08;13.50;;;;;;;;;;10473354;28;20397;-73
2022/03/28 23:15:27;;;;;;;25.47;14.03;;;;;;;;;;10456708;28;20505;-72
2022/03/28 23:20:27;;;;;;;29.83;13.07;;;;;;;;;;10473424;28;20320;-72
2022/03/28 23:25:29;;;;;;;25.52;12.88;;;;;;;;;;10449023;28;20066;-69
2022/03/28 23:30:29;;;;;;;28.20;12.45;;;;;;;;;;10432718;28;20029;-74
2022/03/28 23:35:29;;;;;;;23.33;12.37;;;;;;;;;;10432503;28;20025;-74
2022/03/28 23:40:29;;;;;;;21.30;13.02;;;;;;;;;;10449122;28;20029;-71
2022/03/28 23:45:30;;;;;;;22.10;13.20;;;;;;;;;;10432429;28;20120;-70
2022/03/28 23:50:30;;;;;;;26.58;13.30;;;;;;;;;;10433357;28;20025;-76
2022/03/28 23:55:31;;;;;;;26.67;12.63;;;;;;;;;;10430170;28;20028;-78
